Terminal Aerodrome Forecast
Issued by NWS Louisville, KY

Home | Current Version | Previous Version | Text Only | Print | Product List | Glossary On
Versions: 1 2 3 4 5 6 7 8 9 10 11 12 13 14
000
FTUS43 KLMK 221700
TAFBWG
TAF
KBWG 221731Z 2218/2318 16006KT P6SM SCT050
     FM230900 VRB03KT 5SM BR SCT250
     FM231400 24006KT P6SM SCT050 BKN250=

USA.gov is the U.S. government's official web portal to all federal, state and local government web resources and services.